sensor_id;sensor_type;location;lat;lon;timestamp;P1;durP1;ratioP1;P2;durP2;ratioP2
35699;SDS011;21818;51.078;12.108;2022-09-14T00:01:57;14.13;;;8.75;;
35699;SDS011;21818;51.078;12.108;2022-09-14T00:04:23;13.57;;;9.52;;
35699;SDS011;21818;51.078;12.108;2022-09-14T00:06:49;15.00;;;8.77;;
35699;SDS011;21818;51.078;12.108;2022-09-14T00:09:17;16.08;;;8.60;;
35699;SDS011;21818;51.078;12.108;2022-09-14T00:11:45;16.73;;;9.00;;
35699;SDS011;21818;51.078;12.108;2022-09-14T00:14:14;13.60;;;9.68;;
35699;SDS011;21818;51.078;12.108;2022-09-14T00:16:41;14.88;;;9.15;;
35699;SDS011;21818;51.078;12.108;2022-09-14T00:19:12;13.35;;;8.65;;
35699;SDS011;21818;51.078;12.108;2022-09-14T00:21:41;13.52;;;9.13;;
35699;SDS011;21818;51.078;12.108;2022-09-14T00:24:06;16.90;;;9.75;;
35699;SDS011;21818;51.078;12.108;2022-09-14T00:26:34;15.18;;;9.05;;
35699;SDS011;21818;51.078;12.108;2022-09-14T00:29:00;15.40;;;9.73;;
35699;SDS011;21818;51.078;12.108;2022-09-14T00:31:29;14.05;;;9.45;;
35699;SDS011;21818;51.078;12.108;2022-09-14T00:33:57;15.55;;;10.43;;
35699;SDS011;21818;51.078;12.108;2022-09-14T00:36:25;15.40;;;10.13;;
35699;SDS011;21818;51.078;12.108;2022-09-14T00:38:52;16.40;;;9.35;;
35699;SDS011;21818;51.078;12.108;2022-09-14T00:41:21;14.77;;;9.35;;
35699;SDS011;21818;51.078;12.108;2022-09-14T00:43:52;14.50;;;8.95;;
35699;SDS011;21818;51.078;12.108;2022-09-14T00:46:42;12.73;;;8.45;;
35699;SDS011;21818;51.078;12.108;2022-09-14T00:49:14;13.73;;;9.40;;
35699;SDS011;21818;51.078;12.108;2022-09-14T00:51:57;14.70;;;9.13;;
35699;SDS011;21818;51.078;12.108;2022-09-14T00:54:28;14.07;;;9.07;;
35699;SDS011;21818;51.078;12.108;2022-09-14T00:56:53;18.85;;;10.05;;
35699;SDS011;21818;51.078;12.108;2022-09-14T00:59:26;13.50;;;8.63;;
35699;SDS011;21818;51.078;12.108;2022-09-14T01:01:55;12.32;;;8.80;;
35699;SDS011;21818;51.078;12.108;2022-09-14T01:04:20;12.18;;;8.30;;
35699;SDS011;21818;51.078;12.108;2022-09-14T01:09:27;16.00;;;8.23;;
35699;SDS011;21818;51.078;12.108;2022-09-14T01:14:44;14.63;;;9.07;;
35699;SDS011;21818;51.078;12.108;2022-09-14T01:25:51;12.02;;;7.82;;
35699;SDS011;21818;51.078;12.108;2022-09-14T01:28:53;13.70;;;6.72;;
35699;SDS011;21818;51.078;12.108;2022-09-14T01:31:35;11.98;;;7.75;;
35699;SDS011;21818;51.078;12.108;2022-09-14T01:34:10;10.23;;;5.80;;
35699;SDS011;21818;51.078;12.108;2022-09-14T01:36:38;9.15;;;5.15;;
35699;SDS011;21818;51.078;12.108;2022-09-14T01:39:07;8.10;;;5.13;;
35699;SDS011;21818;51.078;12.108;2022-09-14T01:41:35;9.52;;;4.90;;
35699;SDS011;21818;51.078;12.108;2022-09-14T01:46:37;7.70;;;5.30;;
35699;SDS011;21818;51.078;12.108;2022-09-14T01:49:11;8.68;;;5.13;;
35699;SDS011;21818;51.078;12.108;2022-09-14T01:51:42;6.65;;;5.28;;
35699;SDS011;21818;51.078;12.108;2022-09-14T01:54:24;8.55;;;5.50;;
35699;SDS011;21818;51.078;12.108;2022-09-14T01:57:02;12.20;;;6.45;;
35699;SDS011;21818;51.078;12.108;2022-09-14T01:59:41;9.90;;;5.68;;
35699;SDS011;21818;51.078;12.108;2022-09-14T02:02:10;9.02;;;5.65;;
35699;SDS011;21818;51.078;12.108;2022-09-14T02:07:42;10.82;;;5.90;;
35699;SDS011;21818;51.078;12.108;2022-09-14T02:10:08;12.48;;;6.28;;
35699;SDS011;21818;51.078;12.108;2022-09-14T02:12:37;12.65;;;5.75;;
35699;SDS011;21818;51.078;12.108;2022-09-14T02:15:04;14.05;;;6.10;;
35699;SDS011;21818;51.078;12.108;2022-09-14T02:17:31;8.30;;;6.57;;
35699;SDS011;21818;51.078;12.108;2022-09-14T02:19:58;10.38;;;6.60;;
35699;SDS011;21818;51.078;12.108;2022-09-14T02:22:25;9.68;;;6.70;;
35699;SDS011;21818;51.078;12.108;2022-09-14T02:24:52;13.73;;;7.03;;
35699;SDS011;21818;51.078;12.108;2022-09-14T02:27:19;12.38;;;6.50;;
35699;SDS011;21818;51.078;12.108;2022-09-14T02:29:45;12.35;;;7.35;;
35699;SDS011;21818;51.078;12.108;2022-09-14T02:32:19;10.35;;;6.65;;
35699;SDS011;21818;51.078;12.108;2022-09-14T02:37:49;13.13;;;7.13;;
35699;SDS011;21818;51.078;12.108;2022-09-14T02:40:38;12.45;;;6.97;;
35699;SDS011;21818;51.078;12.108;2022-09-14T02:45:54;11.38;;;6.43;;
35699;SDS011;21818;51.078;12.108;2022-09-14T02:48:39;11.88;;;7.55;;
35699;SDS011;21818;51.078;12.108;2022-09-14T02:56:12;14.25;;;7.45;;
35699;SDS011;21818;51.078;12.108;2022-09-14T02:58:42;16.75;;;7.78;;
35699;SDS011;21818;51.078;12.108;2022-09-14T03:01:10;14.97;;;7.50;;
35699;SDS011;21818;51.078;12.108;2022-09-14T03:03:37;10.85;;;6.80;;
35699;SDS011;21818;51.078;12.108;2022-09-14T03:06:03;13.00;;;6.75;;
35699;SDS011;21818;51.078;12.108;2022-09-14T03:08:29;11.73;;;6.82;;
35699;SDS011;21818;51.078;12.108;2022-09-14T03:10:55;18.42;;;8.25;;
35699;SDS011;21818;51.078;12.108;2022-09-14T03:13:21;11.82;;;6.18;;
35699;SDS011;21818;51.078;12.108;2022-09-14T03:15:46;14.43;;;7.25;;
35699;SDS011;21818;51.078;12.108;2022-09-14T03:18:12;10.27;;;6.55;;
35699;SDS011;21818;51.078;12.108;2022-09-14T03:20:38;11.15;;;7.32;;
35699;SDS011;21818;51.078;12.108;2022-09-14T03:23:04;10.60;;;6.80;;
35699;SDS011;21818;51.078;12.108;2022-09-14T03:25:34;13.55;;;6.95;;
35699;SDS011;21818;51.078;12.108;2022-09-14T03:28:04;12.90;;;6.47;;
35699;SDS011;21818;51.078;12.108;2022-09-14T03:30:30;9.63;;;7.10;;
35699;SDS011;21818;51.078;12.108;2022-09-14T03:32:57;11.32;;;7.03;;
35699;SDS011;21818;51.078;12.108;2022-09-14T03:35:23;11.15;;;7.00;;
35699;SDS011;21818;51.078;12.108;2022-09-14T03:37:51;10.27;;;6.97;;
35699;SDS011;21818;51.078;12.108;2022-09-14T03:40:17;11.18;;;6.65;;
35699;SDS011;21818;51.078;12.108;2022-09-14T03:42:43;12.25;;;6.90;;
35699;SDS011;21818;51.078;12.108;2022-09-14T03:45:11;11.80;;;6.18;;
35699;SDS011;21818;51.078;12.108;2022-09-14T03:47:37;12.63;;;6.72;;
35699;SDS011;21818;51.078;12.108;2022-09-14T03:50:04;8.75;;;6.18;;
35699;SDS011;21818;51.078;12.108;2022-09-14T03:52:30;14.55;;;7.38;;
35699;SDS011;21818;51.078;12.108;2022-09-14T03:54:57;12.23;;;6.15;;
35699;SDS011;21818;51.078;12.108;2022-09-14T03:57:22;9.80;;;5.90;;
35699;SDS011;21818;51.078;12.108;2022-09-14T03:59:48;9.15;;;6.07;;
35699;SDS011;21818;51.078;12.108;2022-09-14T04:02:14;10.50;;;5.95;;
35699;SDS011;21818;51.078;12.108;2022-09-14T04:04:39;8.05;;;5.47;;
35699;SDS011;21818;51.078;12.108;2022-09-14T04:07:05;9.45;;;5.70;;
35699;SDS011;21818;51.078;12.108;2022-09-14T04:09:31;10.68;;;5.32;;
35699;SDS011;21818;51.078;12.108;2022-09-14T04:11:57;9.57;;;5.28;;
35699;SDS011;21818;51.078;12.108;2022-09-14T04:14:23;9.63;;;5.50;;
35699;SDS011;21818;51.078;12.108;2022-09-14T04:16:49;10.80;;;5.22;;
35699;SDS011;21818;51.078;12.108;2022-09-14T04:19:15;6.20;;;4.60;;
35699;SDS011;21818;51.078;12.108;2022-09-14T04:21:40;9.77;;;4.60;;
35699;SDS011;21818;51.078;12.108;2022-09-14T04:24:06;8.35;;;5.07;;
35699;SDS011;21818;51.078;12.108;2022-09-14T04:26:35;9.13;;;4.80;;
35699;SDS011;21818;51.078;12.108;2022-09-14T04:29:01;8.80;;;4.30;;
35699;SDS011;21818;51.078;12.108;2022-09-14T04:31:26;11.40;;;5.25;;
35699;SDS011;21818;51.078;12.108;2022-09-14T04:33:53;9.05;;;4.97;;
35699;SDS011;21818;51.078;12.108;2022-09-14T04:36:21;9.07;;;4.38;;
35699;SDS011;21818;51.078;12.108;2022-09-14T04:38:51;5.20;;;3.35;;
35699;SDS011;21818;51.078;12.108;2022-09-14T04:41:19;7.30;;;3.85;;
35699;SDS011;21818;51.078;12.108;2022-09-14T04:43:45;10.18;;;4.13;;
35699;SDS011;21818;51.078;12.108;2022-09-14T04:46:15;7.68;;;3.58;;
35699;SDS011;21818;51.078;12.108;2022-09-14T04:48:42;7.93;;;3.55;;
35699;SDS011;21818;51.078;12.108;2022-09-14T04:51:12;8.48;;;3.40;;
35699;SDS011;21818;51.078;12.108;2022-09-14T04:53:41;7.32;;;3.30;;
35699;SDS011;21818;51.078;12.108;2022-09-14T04:56:08;6.78;;;3.28;;
35699;SDS011;21818;51.078;12.108;2022-09-14T04:58:35;8.07;;;3.40;;
35699;SDS011;21818;51.078;12.108;2022-09-14T05:01:04;6.22;;;3.47;;
35699;SDS011;21818;51.078;12.108;2022-09-14T05:03:35;6.60;;;3.35;;
35699;SDS011;21818;51.078;12.108;2022-09-14T05:06:05;7.45;;;3.38;;
35699;SDS011;21818;51.078;12.108;2022-09-14T05:08:35;8.93;;;3.97;;
35699;SDS011;21818;51.078;12.108;2022-09-14T05:11:02;6.25;;;3.35;;
35699;SDS011;21818;51.078;12.108;2022-09-14T05:13:29;7.53;;;2.78;;
35699;SDS011;21818;51.078;12.108;2022-09-14T05:15:54;8.10;;;3.45;;
35699;SDS011;21818;51.078;12.108;2022-09-14T05:18:34;6.03;;;3.15;;
35699;SDS011;21818;51.078;12.108;2022-09-14T05:21:02;6.95;;;3.42;;
35699;SDS011;21818;51.078;12.108;2022-09-14T05:23:29;8.43;;;3.10;;
35699;SDS011;21818;51.078;12.108;2022-09-14T05:25:55;9.02;;;3.05;;
35699;SDS011;21818;51.078;12.108;2022-09-14T05:28:21;8.85;;;3.50;;
35699;SDS011;21818;51.078;12.108;2022-09-14T05:30:47;8.32;;;3.65;;
35699;SDS011;21818;51.078;12.108;2022-09-14T05:33:13;10.77;;;3.05;;
35699;SDS011;21818;51.078;12.108;2022-09-14T05:35:38;5.72;;;3.42;;
35699;SDS011;21818;51.078;12.108;2022-09-14T05:38:04;5.35;;;3.30;;
35699;SDS011;21818;51.078;12.108;2022-09-14T05:40:29;6.65;;;3.13;;
35699;SDS011;21818;51.078;12.108;2022-09-14T05:42:55;7.97;;;3.10;;
35699;SDS011;21818;51.078;12.108;2022-09-14T05:45:21;6.82;;;3.35;;
35699;SDS011;21818;51.078;12.108;2022-09-14T05:47:47;7.03;;;3.95;;
35699;SDS011;21818;51.078;12.108;2022-09-14T05:50:12;5.60;;;3.28;;
35699;SDS011;21818;51.078;12.108;2022-09-14T05:52:38;8.73;;;3.08;;
35699;SDS011;21818;51.078;12.108;2022-09-14T05:55:04;7.72;;;3.20;;
35699;SDS011;21818;51.078;12.108;2022-09-14T05:57:31;7.78;;;3.38;;
35699;SDS011;21818;51.078;12.108;2022-09-14T05:59:56;4.63;;;2.90;;
35699;SDS011;21818;51.078;12.108;2022-09-14T06:02:22;7.28;;;3.28;;
35699;SDS011;21818;51.078;12.108;2022-09-14T06:04:48;6.65;;;3.25;;
35699;SDS011;21818;51.078;12.108;2022-09-14T06:07:13;7.90;;;2.85;;
35699;SDS011;21818;51.078;12.108;2022-09-14T06:09:39;8.38;;;2.83;;
35699;SDS011;21818;51.078;12.108;2022-09-14T06:12:04;10.40;;;2.80;;
35699;SDS011;21818;51.078;12.108;2022-09-14T06:14:30;7.85;;;3.00;;
35699;SDS011;21818;51.078;12.108;2022-09-14T06:16:56;6.32;;;3.03;;
35699;SDS011;21818;51.078;12.108;2022-09-14T06:19:21;5.47;;;2.40;;
35699;SDS011;21818;51.078;12.108;2022-09-14T06:21:47;7.90;;;2.55;;
35699;SDS011;21818;51.078;12.108;2022-09-14T06:24:12;5.85;;;2.15;;
35699;SDS011;21818;51.078;12.108;2022-09-14T06:26:38;6.63;;;2.25;;
35699;SDS011;21818;51.078;12.108;2022-09-14T06:29:04;3.80;;;1.75;;
35699;SDS011;21818;51.078;12.108;2022-09-14T06:31:30;8.32;;;2.33;;
35699;SDS011;21818;51.078;12.108;2022-09-14T06:33:56;4.10;;;2.40;;
35699;SDS011;21818;51.078;12.108;2022-09-14T06:36:22;4.45;;;1.98;;
35699;SDS011;21818;51.078;12.108;2022-09-14T06:38:49;5.85;;;2.25;;
35699;SDS011;21818;51.078;12.108;2022-09-14T06:41:16;6.90;;;3.10;;
35699;SDS011;21818;51.078;12.108;2022-09-14T06:43:44;4.55;;;2.05;;
35699;SDS011;21818;51.078;12.108;2022-09-14T06:48:51;4.38;;;1.40;;
35699;SDS011;21818;51.078;12.108;2022-09-14T06:51:20;3.35;;;1.40;;
35699;SDS011;21818;51.078;12.108;2022-09-14T06:53:47;6.35;;;1.45;;
35699;SDS011;21818;51.078;12.108;2022-09-14T06:56:13;6.82;;;1.88;;
35699;SDS011;21818;51.078;12.108;2022-09-14T06:58:39;9.13;;;1.67;;
35699;SDS011;21818;51.078;12.108;2022-09-14T07:01:07;4.45;;;1.70;;
35699;SDS011;21818;51.078;12.108;2022-09-14T07:03:36;5.13;;;1.50;;
35699;SDS011;21818;51.078;12.108;2022-09-14T07:06:07;4.88;;;1.92;;
35699;SDS011;21818;51.078;12.108;2022-09-14T07:08:34;7.68;;;2.30;;
35699;SDS011;21818;51.078;12.108;2022-09-14T07:11:01;7.03;;;1.70;;
35699;SDS011;21818;51.078;12.108;2022-09-14T07:13:27;7.45;;;1.52;;
35699;SDS011;21818;51.078;12.108;2022-09-14T07:15:54;4.63;;;1.75;;
35699;SDS011;21818;51.078;12.108;2022-09-14T07:18:20;4.65;;;1.30;;
35699;SDS011;21818;51.078;12.108;2022-09-14T07:20:47;6.60;;;1.85;;
35699;SDS011;21818;51.078;12.108;2022-09-14T07:23:13;4.35;;;1.92;;
35699;SDS011;21818;51.078;12.108;2022-09-14T07:25:39;7.72;;;1.70;;
35699;SDS011;21818;51.078;12.108;2022-09-14T07:28:05;3.45;;;1.27;;
35699;SDS011;21818;51.078;12.108;2022-09-14T07:30:33;4.65;;;1.73;;
35699;SDS011;21818;51.078;12.108;2022-09-14T07:33:00;4.88;;;1.67;;
35699;SDS011;21818;51.078;12.108;2022-09-14T07:35:25;6.00;;;1.52;;
35699;SDS011;21818;51.078;12.108;2022-09-14T07:37:51;4.75;;;1.55;;
35699;SDS011;21818;51.078;12.108;2022-09-14T07:40:18;7.20;;;1.77;;
35699;SDS011;21818;51.078;12.108;2022-09-14T07:42:48;4.85;;;2.00;;
35699;SDS011;21818;51.078;12.108;2022-09-14T07:45:15;7.22;;;1.33;;
35699;SDS011;21818;51.078;12.108;2022-09-14T07:47:40;5.03;;;1.73;;
35699;SDS011;21818;51.078;12.108;2022-09-14T07:50:06;5.88;;;1.95;;
35699;SDS011;21818;51.078;12.108;2022-09-14T07:52:32;6.18;;;1.92;;
35699;SDS011;21818;51.078;12.108;2022-09-14T07:54:57;6.18;;;1.83;;
35699;SDS011;21818;51.078;12.108;2022-09-14T07:57:23;4.13;;;1.70;;
35699;SDS011;21818;51.078;12.108;2022-09-14T07:59:48;5.35;;;2.80;;
35699;SDS011;21818;51.078;12.108;2022-09-14T08:02:14;4.45;;;1.67;;
35699;SDS011;21818;51.078;12.108;2022-09-14T08:04:39;6.63;;;2.28;;
35699;SDS011;21818;51.078;12.108;2022-09-14T08:07:06;7.40;;;2.10;;
35699;SDS011;21818;51.078;12.108;2022-09-14T08:09:32;7.88;;;1.85;;
35699;SDS011;21818;51.078;12.108;2022-09-14T08:11:58;6.18;;;2.15;;
35699;SDS011;21818;51.078;12.108;2022-09-14T08:14:24;5.00;;;2.30;;
35699;SDS011;21818;51.078;12.108;2022-09-14T08:16:49;7.13;;;2.17;;
35699;SDS011;21818;51.078;12.108;2022-09-14T08:19:15;6.65;;;2.42;;
35699;SDS011;21818;51.078;12.108;2022-09-14T08:21:42;7.55;;;2.20;;
35699;SDS011;21818;51.078;12.108;2022-09-14T08:24:10;4.40;;;1.90;;
35699;SDS011;21818;51.078;12.108;2022-09-14T08:26:37;5.60;;;2.25;;
35699;SDS011;21818;51.078;12.108;2022-09-14T08:29:05;6.45;;;2.65;;
35699;SDS011;21818;51.078;12.108;2022-09-14T08:31:34;4.18;;;2.17;;
35699;SDS011;21818;51.078;12.108;2022-09-14T08:34:01;4.18;;;2.05;;
35699;SDS011;21818;51.078;12.108;2022-09-14T08:36:31;10.25;;;2.65;;
35699;SDS011;21818;51.078;12.108;2022-09-14T08:38:58;3.30;;;2.00;;
35699;SDS011;21818;51.078;12.108;2022-09-14T08:41:32;4.95;;;2.22;;
35699;SDS011;21818;51.078;12.108;2022-09-14T08:43:59;5.18;;;2.50;;
35699;SDS011;21818;51.078;12.108;2022-09-14T08:48:57;2.80;;;2.00;;
35699;SDS011;21818;51.078;12.108;2022-09-14T08:51:25;6.05;;;2.22;;
35699;SDS011;21818;51.078;12.108;2022-09-14T08:53:51;7.43;;;2.35;;
35699;SDS011;21818;51.078;12.108;2022-09-14T08:56:23;7.22;;;2.28;;
35699;SDS011;21818;51.078;12.108;2022-09-14T09:07:39;5.57;;;1.98;;
35699;SDS011;21818;51.078;12.108;2022-09-14T09:10:14;5.40;;;2.15;;
35699;SDS011;21818;51.078;12.108;2022-09-14T09:12:43;3.85;;;2.00;;
35699;SDS011;21818;51.078;12.108;2022-09-14T09:17:52;3.83;;;1.85;;
35699;SDS011;21818;51.078;12.108;2022-09-14T09:20:51;5.32;;;1.80;;
35699;SDS011;21818;51.078;12.108;2022-09-14T09:23:23;4.50;;;2.00;;
35699;SDS011;21818;51.078;12.108;2022-09-14T09:28:43;3.28;;;1.70;;
35699;SDS011;21818;51.078;12.108;2022-09-14T09:31:12;7.53;;;2.42;;
35699;SDS011;21818;51.078;12.108;2022-09-14T09:33:39;5.22;;;1.70;;
35699;SDS011;21818;51.078;12.108;2022-09-14T09:36:05;4.30;;;1.58;;
35699;SDS011;21818;51.078;12.108;2022-09-14T09:38:32;3.78;;;1.70;;
35699;SDS011;21818;51.078;12.108;2022-09-14T09:41:10;5.30;;;1.63;;
35699;SDS011;21818;51.078;12.108;2022-09-14T09:43:55;3.95;;;1.90;;
35699;SDS011;21818;51.078;12.108;2022-09-14T09:46:31;8.03;;;1.90;;
35699;SDS011;21818;51.078;12.108;2022-09-14T09:49:02;7.05;;;2.30;;
35699;SDS011;21818;51.078;12.108;2022-09-14T09:51:50;5.28;;;1.75;;
35699;SDS011;21818;51.078;12.108;2022-09-14T09:54:24;5.03;;;1.40;;
35699;SDS011;21818;51.078;12.108;2022-09-14T09:56:57;3.22;;;1.30;;
35699;SDS011;21818;51.078;12.108;2022-09-14T09:59:39;5.78;;;1.67;;
35699;SDS011;21818;51.078;12.108;2022-09-14T10:02:17;6.53;;;1.60;;
35699;SDS011;21818;51.078;12.108;2022-09-14T10:05:05;7.30;;;1.60;;
35699;SDS011;21818;51.078;12.108;2022-09-14T10:10:41;6.88;;;1.95;;
35699;SDS011;21818;51.078;12.108;2022-09-14T10:13:17;7.82;;;1.85;;
35699;SDS011;21818;51.078;12.108;2022-09-14T10:16:15;5.38;;;1.30;;
35699;SDS011;21818;51.078;12.108;2022-09-14T10:18:43;3.90;;;1.48;;
35699;SDS011;21818;51.078;12.108;2022-09-14T10:21:10;7.85;;;2.67;;
35699;SDS011;21818;51.078;12.108;2022-09-14T10:23:38;4.43;;;1.63;;
35699;SDS011;21818;51.078;12.108;2022-09-14T10:28:42;4.75;;;1.50;;
35699;SDS011;21818;51.078;12.108;2022-09-14T10:33:50;4.60;;;1.90;;
35699;SDS011;21818;51.078;12.108;2022-09-14T10:36:30;5.82;;;1.73;;
35699;SDS011;21818;51.078;12.108;2022-09-14T10:39:08;9.77;;;2.70;;
35699;SDS011;21818;51.078;12.108;2022-09-14T10:41:59;6.28;;;2.00;;
35699;SDS011;21818;51.078;12.108;2022-09-14T10:47:40;7.18;;;2.95;;
35699;SDS011;21818;51.078;12.108;2022-09-14T10:56:18;5.10;;;2.20;;
35699;SDS011;21818;51.078;12.108;2022-09-14T11:04:51;4.32;;;2.08;;
35699;SDS011;21818;51.078;12.108;2022-09-14T11:10:33;4.32;;;1.70;;
35699;SDS011;21818;51.078;12.108;2022-09-14T11:16:14;5.18;;;2.53;;
35699;SDS011;21818;51.078;12.108;2022-09-14T11:21:42;6.03;;;1.70;;
35699;SDS011;21818;51.078;12.108;2022-09-14T11:24:23;6.45;;;2.15;;
35699;SDS011;21818;51.078;12.108;2022-09-14T11:29:48;5.30;;;2.22;;
35699;SDS011;21818;51.078;12.108;2022-09-14T11:34:48;3.42;;;1.60;;
35699;SDS011;21818;51.078;12.108;2022-09-14T11:37:19;7.57;;;1.95;;
35699;SDS011;21818;51.078;12.108;2022-09-14T11:40:00;8.23;;;1.67;;
35699;SDS011;21818;51.078;12.108;2022-09-14T11:42:43;6.68;;;1.58;;
35699;SDS011;21818;51.078;12.108;2022-09-14T11:48:10;6.40;;;1.77;;
35699;SDS011;21818;51.078;12.108;2022-09-14T11:50:41;6.47;;;2.78;;
35699;SDS011;21818;51.078;12.108;2022-09-14T11:53:13;5.38;;;1.80;;
35699;SDS011;21818;51.078;12.108;2022-09-14T11:55:44;2.87;;;1.53;;
35699;SDS011;21818;51.078;12.108;2022-09-14T11:58:22;7.70;;;2.10;;
35699;SDS011;21818;51.078;12.108;2022-09-14T12:03:19;6.85;;;2.05;;
35699;SDS011;21818;51.078;12.108;2022-09-14T12:11:00;3.67;;;1.80;;
35699;SDS011;21818;51.078;12.108;2022-09-14T12:13:26;4.35;;;2.03;;
35699;SDS011;21818;51.078;12.108;2022-09-14T12:16:05;8.80;;;2.38;;
35699;SDS011;21818;51.078;12.108;2022-09-14T12:18:34;9.35;;;2.17;;
35699;SDS011;21818;51.078;12.108;2022-09-14T12:23:51;6.38;;;1.77;;
35699;SDS011;21818;51.078;12.108;2022-09-14T12:26:31;7.05;;;2.28;;
35699;SDS011;21818;51.078;12.108;2022-09-14T12:29:02;6.30;;;1.83;;
35699;SDS011;21818;51.078;12.108;2022-09-14T12:34:24;6.95;;;2.55;;
35699;SDS011;21818;51.078;12.108;2022-09-14T12:42:00;7.45;;;2.13;;
35699;SDS011;21818;51.078;12.108;2022-09-14T12:44:56;6.93;;;2.00;;
35699;SDS011;21818;51.078;12.108;2022-09-14T12:49:55;4.88;;;2.08;;
35699;SDS011;21818;51.078;12.108;2022-09-14T12:52:36;6.07;;;2.70;;
35699;SDS011;21818;51.078;12.108;2022-09-14T12:55:32;5.38;;;2.15;;
35699;SDS011;21818;51.078;12.108;2022-09-14T12:58:30;6.35;;;2.65;;
35699;SDS011;21818;51.078;12.108;2022-09-14T13:03:58;7.00;;;2.58;;
35699;SDS011;21818;51.078;12.108;2022-09-14T13:06:26;9.93;;;2.30;;
35699;SDS011;21818;51.078;12.108;2022-09-14T13:08:59;6.10;;;2.40;;
35699;SDS011;21818;51.078;12.108;2022-09-14T13:11:30;6.35;;;2.30;;
35699;SDS011;21818;51.078;12.108;2022-09-14T13:13:58;6.60;;;2.10;;
35699;SDS011;21818;51.078;12.108;2022-09-14T13:16:30;7.75;;;2.30;;
35699;SDS011;21818;51.078;12.108;2022-09-14T13:19:05;6.30;;;2.65;;
35699;SDS011;21818;51.078;12.108;2022-09-14T13:21:46;4.03;;;2.20;;
35699;SDS011;21818;51.078;12.108;2022-09-14T13:26:59;8.57;;;2.40;;
35699;SDS011;21818;51.078;12.108;2022-09-14T13:29:26;9.52;;;2.42;;
35699;SDS011;21818;51.078;12.108;2022-09-14T13:31:53;9.57;;;3.28;;
35699;SDS011;21818;51.078;12.108;2022-09-14T13:34:22;4.60;;;2.28;;
35699;SDS011;21818;51.078;12.108;2022-09-14T13:36:53;4.43;;;2.08;;
35699;SDS011;21818;51.078;12.108;2022-09-14T13:39:24;5.80;;;2.30;;
35699;SDS011;21818;51.078;12.108;2022-09-14T13:41:53;6.70;;;2.75;;
35699;SDS011;21818;51.078;12.108;2022-09-14T13:44:21;4.90;;;2.63;;
35699;SDS011;21818;51.078;12.108;2022-09-14T13:46:50;8.65;;;2.60;;
35699;SDS011;21818;51.078;12.108;2022-09-14T13:49:15;7.82;;;2.55;;
35699;SDS011;21818;51.078;12.108;2022-09-14T13:51:41;6.38;;;2.38;;
35699;SDS011;21818;51.078;12.108;2022-09-14T13:54:17;7.75;;;2.20;;
35699;SDS011;21818;51.078;12.108;2022-09-14T14:02:38;7.07;;;2.63;;
35699;SDS011;21818;51.078;12.108;2022-09-14T14:05:18;5.28;;;2.33;;
35699;SDS011;21818;51.078;12.108;2022-09-14T14:07:47;3.83;;;1.70;;
35699;SDS011;21818;51.078;12.108;2022-09-14T14:10:26;8.30;;;2.17;;
35699;SDS011;21818;51.078;12.108;2022-09-14T14:12:52;7.57;;;3.58;;
35699;SDS011;21818;51.078;12.108;2022-09-14T14:17:43;7.07;;;2.58;;
35699;SDS011;21818;51.078;12.108;2022-09-14T14:25:38;5.95;;;2.30;;
35699;SDS011;21818;51.078;12.108;2022-09-14T14:28:13;5.05;;;2.42;;
35699;SDS011;21818;51.078;12.108;2022-09-14T14:30:41;6.80;;;2.47;;
35699;SDS011;21818;51.078;12.108;2022-09-14T14:33:14;6.35;;;3.00;;
35699;SDS011;21818;51.078;12.108;2022-09-14T14:35:43;7.72;;;2.55;;
35699;SDS011;21818;51.078;12.108;2022-09-14T14:38:12;8.10;;;2.35;;
35699;SDS011;21818;51.078;12.108;2022-09-14T14:40:40;4.57;;;2.50;;
35699;SDS011;21818;51.078;12.108;2022-09-14T14:43:06;5.60;;;1.98;;
35699;SDS011;21818;51.078;12.108;2022-09-14T14:45:33;4.85;;;2.17;;
35699;SDS011;21818;51.078;12.108;2022-09-14T14:48:00;6.50;;;2.80;;
35699;SDS011;21818;51.078;12.108;2022-09-14T14:50:27;6.70;;;2.60;;
35699;SDS011;21818;51.078;12.108;2022-09-14T14:52:57;8.90;;;3.22;;
35699;SDS011;21818;51.078;12.108;2022-09-14T14:55:24;7.40;;;2.90;;
35699;SDS011;21818;51.078;12.108;2022-09-14T14:57:52;5.68;;;3.17;;
35699;SDS011;21818;51.078;12.108;2022-09-14T15:00:22;6.78;;;2.35;;
35699;SDS011;21818;51.078;12.108;2022-09-14T15:02:48;6.13;;;3.00;;
35699;SDS011;21818;51.078;12.108;2022-09-14T15:05:15;5.93;;;3.20;;
35699;SDS011;21818;51.078;12.108;2022-09-14T15:07:41;5.22;;;2.50;;
35699;SDS011;21818;51.078;12.108;2022-09-14T15:10:07;6.88;;;2.30;;
35699;SDS011;21818;51.078;12.108;2022-09-14T15:12:35;6.30;;;2.95;;
35699;SDS011;21818;51.078;12.108;2022-09-14T15:15:01;10.32;;;3.45;;
35699;SDS011;21818;51.078;12.108;2022-09-14T15:17:27;5.93;;;2.92;;
35699;SDS011;21818;51.078;12.108;2022-09-14T15:19:52;7.70;;;2.90;;
35699;SDS011;21818;51.078;12.108;2022-09-14T15:22:18;7.57;;;2.90;;
35699;SDS011;21818;51.078;12.108;2022-09-14T15:24:43;5.78;;;2.25;;
35699;SDS011;21818;51.078;12.108;2022-09-14T15:27:09;5.45;;;3.00;;
35699;SDS011;21818;51.078;12.108;2022-09-14T15:29:35;6.85;;;3.10;;
35699;SDS011;21818;51.078;12.108;2022-09-14T15:32:01;5.60;;;2.88;;
35699;SDS011;21818;51.078;12.108;2022-09-14T15:34:26;7.45;;;3.35;;
35699;SDS011;21818;51.078;12.108;2022-09-14T15:36:52;6.40;;;2.72;;
35699;SDS011;21818;51.078;12.108;2022-09-14T15:39:22;7.85;;;3.00;;
35699;SDS011;21818;51.078;12.108;2022-09-14T15:41:50;8.85;;;3.17;;
35699;SDS011;21818;51.078;12.108;2022-09-14T15:44:16;7.15;;;2.78;;
35699;SDS011;21818;51.078;12.108;2022-09-14T15:46:42;5.05;;;3.00;;
35699;SDS011;21818;51.078;12.108;2022-09-14T15:49:16;8.10;;;3.60;;
35699;SDS011;21818;51.078;12.108;2022-09-14T15:51:44;6.03;;;3.53;;
35699;SDS011;21818;51.078;12.108;2022-09-14T15:54:12;5.72;;;2.92;;
35699;SDS011;21818;51.078;12.108;2022-09-14T15:56:38;8.25;;;2.80;;
35699;SDS011;21818;51.078;12.108;2022-09-14T15:59:04;5.97;;;2.92;;
35699;SDS011;21818;51.078;12.108;2022-09-14T16:01:29;4.93;;;3.10;;
35699;SDS011;21818;51.078;12.108;2022-09-14T16:03:56;5.88;;;3.40;;
35699;SDS011;21818;51.078;12.108;2022-09-14T16:06:23;6.85;;;3.15;;
35699;SDS011;21818;51.078;12.108;2022-09-14T16:08:49;5.28;;;3.55;;
35699;SDS011;21818;51.078;12.108;2022-09-14T16:11:15;6.00;;;3.65;;
35699;SDS011;21818;51.078;12.108;2022-09-14T16:13:40;5.60;;;3.88;;
35699;SDS011;21818;51.078;12.108;2022-09-14T16:16:10;8.43;;;4.60;;
35699;SDS011;21818;51.078;12.108;2022-09-14T16:18:37;8.02;;;4.55;;
35699;SDS011;21818;51.078;12.108;2022-09-14T16:21:10;5.78;;;3.72;;
35699;SDS011;21818;51.078;12.108;2022-09-14T16:23:39;4.40;;;3.20;;
35699;SDS011;21818;51.078;12.108;2022-09-14T16:26:07;6.63;;;3.70;;
35699;SDS011;21818;51.078;12.108;2022-09-14T16:28:36;6.28;;;3.78;;
35699;SDS011;21818;51.078;12.108;2022-09-14T16:31:03;6.63;;;3.50;;
35699;SDS011;21818;51.078;12.108;2022-09-14T16:33:29;9.90;;;4.30;;
35699;SDS011;21818;51.078;12.108;2022-09-14T16:36:10;6.10;;;2.90;;
35699;SDS011;21818;51.078;12.108;2022-09-14T16:38:38;5.15;;;2.47;;
35699;SDS011;21818;51.078;12.108;2022-09-14T16:41:04;5.50;;;3.03;;
35699;SDS011;21818;51.078;12.108;2022-09-14T16:43:31;5.35;;;2.97;;
35699;SDS011;21818;51.078;12.108;2022-09-14T16:46:05;3.97;;;2.35;;
35699;SDS011;21818;51.078;12.108;2022-09-14T16:48:39;5.75;;;3.13;;
35699;SDS011;21818;51.078;12.108;2022-09-14T16:51:08;4.03;;;2.83;;
35699;SDS011;21818;51.078;12.108;2022-09-14T16:53:36;5.63;;;2.40;;
35699;SDS011;21818;51.078;12.108;2022-09-14T16:56:08;5.55;;;2.30;;